Time;durP1;ratioP1;P1;durP2;ratioP2;P2;SDS_P1;SDS_P2;PMS_P1;PMS_P2;Temp;Humidity;BMP_temperature;BMP_pressure;BME280_temperature;BME280_humidity;BME280_pressure;Samples;Min_cycle;Max_cycle;Signal;HPM_P1;HPM_P2
2024/01/25 00:00:27;;;;;;;23.50;4.45;;;6.90;99.90;;;;;;5067424;28;20035;-47
2024/01/25 00:02:53;;;;;;;30.13;5.32;;;6.90;99.90;;;;;;5067340;28;20348;-47
2024/01/25 00:05:19;;;;;;;24.77;4.38;;;7.00;99.90;;;;;;5067021;28;20024;-47
2024/01/25 00:07:48;;;;;;;29.83;5.18;;;7.00;99.90;;;;;;5067247;28;20084;-48
2024/01/25 00:10:15;;;;;;;23.23;4.40;;;7.10;99.90;;;;;;5066128;28;20027;-48
2024/01/25 00:12:42;;;;;;;30.63;5.45;;;7.00;99.90;;;;;;5066714;28;20287;-47
2024/01/25 00:15:08;;;;;;;24.98;4.40;;;7.00;99.90;;;;;;5067161;28;20032;-50
2024/01/25 00:17:34;;;;;;;27.30;5.10;;;7.00;99.90;;;;;;5066671;28;20056;-48
2024/01/25 00:19:59;;;;;;;22.77;4.35;;;7.00;99.90;;;;;;5066807;28;20070;-47
2024/01/25 00:22:26;;;;;;;37.05;8.98;;;7.00;99.90;;;;;;5065821;28;20028;-47
2024/01/25 00:24:51;;;;;;;28.90;6.10;;;7.10;99.90;;;;;;5065783;28;20040;-47
2024/01/25 00:27:17;;;;;;;26.35;5.47;;;7.10;99.90;;;;;;5066003;28;20040;-47
2024/01/25 00:29:43;;;;;;;26.48;4.88;;;7.10;99.90;;;;;;5066651;28;20017;-47
2024/01/25 00:32:09;;;;;;;28.95;5.60;;;7.00;99.90;;;;;;5066581;28;20056;-47
2024/01/25 00:34:35;;;;;;;30.85;4.88;;;7.10;99.90;;;;;;5066654;28;20278;-47
2024/01/25 00:37:01;;;;;;;22.83;5.07;;;7.10;99.90;;;;;;5066681;28;20048;-46
2024/01/25 00:39:27;;;;;;;26.05;5.38;;;7.10;99.90;;;;;;5066521;28;20040;-47
2024/01/25 00:41:53;;;;;;;27.02;5.38;;;7.10;99.90;;;;;;5066111;28;20048;-47
2024/01/25 00:44:18;;;;;;;40.00;8.82;;;7.00;99.90;;;;;;5065369;28;20299;-46
2024/01/25 00:46:46;;;;;;;35.25;8.30;;;6.90;99.90;;;;;;5065531;28;20061;-46
2024/01/25 00:49:13;;;;;;;21.83;5.00;;;6.80;99.90;;;;;;5066481;28;20024;-47
2024/01/25 00:51:39;;;;;;;26.35;6.50;;;6.80;99.90;;;;;;5066198;28;20203;-46
2024/01/25 00:54:05;;;;;;;25.15;4.78;;;6.80;99.90;;;;;;5065389;28;20033;-46
2024/01/25 00:56:31;;;;;;;22.55;3.85;;;6.80;99.90;;;;;;5066325;28;20028;-48
2024/01/25 00:58:57;;;;;;;19.83;4.47;;;6.80;99.90;;;;;;5066281;28;20025;-46
2024/01/25 01:01:22;;;;;;;19.95;4.35;;;6.70;99.90;;;;;;5066474;28;20036;-49
2024/01/25 01:03:52;;;;;;;24.50;4.93;;;6.80;99.90;;;;;;5065223;28;20080;-48
2024/01/25 01:06:20;;;;;;;21.48;5.22;;;6.70;99.90;;;;;;5066191;28;20036;-46
2024/01/25 01:08:46;;;;;;;20.50;4.68;;;6.60;99.90;;;;;;5064972;28;20037;-49
2024/01/25 01:11:12;;;;;;;30.13;5.65;;;6.50;99.90;;;;;;5066039;28;20295;-48
2024/01/25 01:13:37;;;;;;;22.98;5.78;;;6.70;99.90;;;;;;5065634;28;20084;-47
2024/01/25 01:16:03;;;;;;;26.20;5.82;;;6.70;99.90;;;;;;5065448;28;20049;-49
2024/01/25 01:18:29;;;;;;;24.38;4.90;;;6.60;99.90;;;;;;5064822;28;20056;-48
2024/01/25 01:20:54;;;;;;;19.08;4.15;;;6.60;99.90;;;;;;5065987;28;20293;-51
2024/01/25 01:23:20;;;;;;;25.88;5.00;;;6.60;99.90;;;;;;5065688;28;20037;-47
2024/01/25 01:25:46;;;;;;;20.95;4.82;;;6.60;99.90;;;;;;5065669;28;20021;-46
2024/01/25 01:28:11;;;;;;;17.77;4.85;;;6.60;99.90;;;;;;5065802;28;20186;-45
2024/01/25 01:30:41;;;;;;;21.35;4.70;;;6.50;99.90;;;;;;5066230;28;20028;-45
2024/01/25 01:33:08;;;;;;;22.17;4.95;;;6.60;99.90;;;;;;5065738;28;20024;-46
2024/01/25 01:35:33;;;;;;;22.80;4.72;;;6.60;99.90;;;;;;5065933;28;20035;-46
2024/01/25 01:37:59;;;;;;;16.35;5.10;;;6.60;99.90;;;;;;5065662;28;20160;-45
2024/01/25 01:40:25;;;;;;;23.77;4.72;;;6.50;99.90;;;;;;5064094;28;20037;-47
2024/01/25 01:42:50;;;;;;;24.20;4.95;;;6.50;99.90;;;;;;5065716;28;20055;-47
2024/01/25 01:45:16;;;;;;;19.35;5.38;;;6.50;99.90;;;;;;5065403;28;20082;-48
2024/01/25 01:47:42;;;;;;;22.17;4.93;;;6.50;99.90;;;;;;5064753;28;20025;-46
2024/01/25 01:50:08;;;;;;;27.92;5.53;;;6.60;99.90;;;;;;5064652;28;20088;-49
2024/01/25 01:52:33;;;;;;;26.77;5.30;;;6.70;99.90;;;;;;5064534;28;20094;-49
2024/01/25 01:54:59;;;;;;;27.98;4.72;;;6.80;99.90;;;;;;5065741;28;20025;-47
2024/01/25 01:57:25;;;;;;;39.03;6.60;;;6.90;99.90;;;;;;5064654;28;20028;-46
2024/01/25 01:59:51;;;;;;;28.45;5.32;;;7.00;99.90;;;;;;5065574;28;20052;-46
2024/01/25 02:02:17;;;;;;;39.60;5.50;;;7.10;99.90;;;;;;5065303;28;20021;-46
2024/01/25 02:04:43;;;;;;;30.95;4.93;;;7.20;99.90;;;;;;5065404;28;20047;-47
2024/01/25 02:07:09;;;;;;;23.08;5.13;;;7.20;99.90;;;;;;5065423;28;20096;-46
2024/01/25 02:09:34;;;;;;;26.58;5.20;;;7.20;99.90;;;;;;5065163;28;20191;-46
2024/01/25 02:12:02;;;;;;;29.15;5.05;;;7.30;99.90;;;;;;5065258;28;20009;-46
2024/01/25 02:14:27;;;;;;;30.50;4.70;;;7.30;99.90;;;;;;5065228;28;20041;-46
2024/01/25 02:16:53;;;;;;;35.88;4.53;;;7.30;99.90;;;;;;5064712;28;20071;-46
2024/01/25 02:19:19;;;;;;;28.35;4.72;;;7.40;99.90;;;;;;5064209;28;20032;-46
2024/01/25 02:21:44;;;;;;;25.90;4.45;;;7.40;99.90;;;;;;5065197;28;20064;-46
2024/01/25 02:24:10;;;;;;;22.15;4.18;;;7.40;99.90;;;;;;5065149;28;20203;-47
2024/01/25 02:26:36;;;;;;;29.50;5.28;;;7.50;99.90;;;;;;5064235;28;20028;-47
2024/01/25 02:29:04;;;;;;;23.17;4.22;;;7.40;99.90;;;;;;5065180;28;20108;-46
2024/01/25 02:31:30;;;;;;;23.95;4.78;;;7.40;99.90;;;;;;5065089;28;20088;-46
2024/01/25 02:33:56;;;;;;;32.67;5.15;;;7.50;99.90;;;;;;5064975;28;20293;-46
2024/01/25 02:36:25;;;;;;;28.40;4.15;;;7.50;99.90;;;;;;5064069;28;20049;-49
2024/01/25 02:38:50;;;;;;;19.58;3.97;;;7.50;99.90;;;;;;5065125;28;20037;-46
2024/01/25 02:41:16;;;;;;;22.85;3.40;;;7.50;99.90;;;;;;5064747;28;20025;-47
2024/01/25 02:43:42;;;;;;;19.58;3.72;;;7.50;99.90;;;;;;5065035;28;20056;-47
2024/01/25 02:46:08;;;;;;;26.15;3.70;;;7.50;99.90;;;;;;5065047;28;20035;-47
2024/01/25 02:48:34;;;;;;;25.63;4.10;;;7.50;99.90;;;;;;5047425;28;20024;-46
2024/01/25 02:51:00;;;;;;;26.05;4.22;;;7.60;99.90;;;;;;5065509;28;20172;-47
2024/01/25 02:53:25;;;;;;;21.17;4.35;;;7.60;99.90;;;;;;5068398;28;20079;-49
2024/01/25 02:55:51;;;;;;;26.65;4.40;;;7.70;99.90;;;;;;5068747;28;20299;-49
2024/01/25 02:58:17;;;;;;;20.05;4.07;;;7.70;99.90;;;;;;5067531;28;20199;-49
2024/01/25 03:00:42;;;;;;;20.80;3.70;;;7.80;99.90;;;;;;5067669;28;20043;-49
2024/01/25 03:03:08;;;;;;;18.13;4.10;;;7.90;99.90;;;;;;5068517;28;20295;-49
2024/01/25 03:05:34;;;;;;;26.42;4.75;;;7.90;99.90;;;;;;5068469;28;20160;-49
2024/01/25 03:08:00;;;;;;;23.48;4.00;;;7.90;99.90;;;;;;5067910;28;20183;-48
2024/01/25 03:10:26;;;;;;;26.90;4.18;;;7.90;99.90;;;;;;5068417;28;20088;-49
2024/01/25 03:12:52;;;;;;;20.70;3.45;;;8.00;99.90;;;;;;5068378;28;20171;-48
2024/01/25 03:15:17;;;;;;;23.60;3.70;;;8.00;99.90;;;;;;5067772;28;20298;-47
2024/01/25 03:17:43;;;;;;;23.08;4.10;;;8.00;99.90;;;;;;5068021;28;20147;-49
2024/01/25 03:20:09;;;;;;;18.48;3.70;;;8.00;99.90;;;;;;5067970;28;20029;-47
2024/01/25 03:22:35;;;;;;;22.38;3.28;;;8.10;99.90;;;;;;5068144;28;20037;-46
2024/01/25 03:25:01;;;;;;;24.73;3.92;;;8.10;99.90;;;;;;5067518;28;20176;-46
2024/01/25 03:27:26;;;;;;;15.93;3.20;;;8.10;99.90;;;;;;5067912;28;20097;-47
2024/01/25 03:29:52;;;;;;;21.67;3.40;;;8.10;99.90;;;;;;5067935;28;20033;-46
2024/01/25 03:32:18;;;;;;;18.48;2.92;;;8.10;99.90;;;;;;5067845;28;20028;-46
2024/01/25 03:34:44;;;;;;;23.15;3.72;;;8.10;99.90;;;;;;5068084;28;20049;-46
2024/01/25 03:37:09;;;;;;;28.98;3.88;;;8.20;99.90;;;;;;5067893;28;20033;-46
2024/01/25 03:39:35;;;;;;;25.08;3.65;;;8.20;99.90;;;;;;5067567;28;20028;-46
2024/01/25 03:42:01;;;;;;;26.17;3.60;;;8.30;99.90;;;;;;5066936;28;20044;-45
2024/01/25 03:44:26;;;;;;;21.80;3.67;;;8.40;99.90;;;;;;5066521;28;20098;-46
2024/01/25 03:46:52;;;;;;;21.90;3.95;;;8.40;99.90;;;;;;5067625;28;20025;-46
2024/01/25 03:49:18;;;;;;;26.90;3.85;;;8.40;99.90;;;;;;5067291;28;20341;-46
2024/01/25 03:51:44;;;;;;;29.83;4.22;;;8.50;99.90;;;;;;5067264;28;20294;-47
2024/01/25 03:54:10;;;;;;;20.77;3.22;;;8.50;99.90;;;;;;5067105;28;20025;-48
2024/01/25 03:56:35;;;;;;;29.55;3.42;;;8.60;99.90;;;;;;5067463;28;20052;-46
2024/01/25 03:59:01;;;;;;;25.42;3.50;;;8.60;99.90;;;;;;5067368;28;20076;-46
2024/01/25 04:01:27;;;;;;;26.60;3.00;;;8.60;99.90;;;;;;5066884;28;20025;-47
2024/01/25 04:03:52;;;;;;;19.83;3.25;;;8.70;99.90;;;;;;5066823;28;20085;-46
2024/01/25 04:06:19;;;;;;;15.95;3.13;;;8.90;99.90;;;;;;5067075;28;20021;-47
2024/01/25 04:08:45;;;;;;;26.38;3.95;;;9.10;99.90;;;;;;5066092;28;20025;-47
2024/01/25 04:11:10;;;;;;;19.88;3.45;;;9.30;99.90;;;;;;5067224;28;20110;-48
2024/01/25 04:13:36;;;;;;;17.25;2.85;;;9.40;99.90;;;;;;5067225;28;20034;-46
2024/01/25 04:16:02;;;;;;;25.23;3.90;;;9.50;99.90;;;;;;5066792;28;20056;-49
2024/01/25 04:18:27;;;;;;;20.38;2.97;;;9.50;99.90;;;;;;5066990;28;20044;-49
2024/01/25 04:20:53;;;;;;;23.27;3.40;;;9.50;99.90;;;;;;5066963;28;20029;-49
2024/01/25 04:23:19;;;;;;;16.77;3.05;;;9.50;99.90;;;;;;5066846;28;20088;-49
2024/01/25 04:25:44;;;;;;;23.20;3.80;;;9.50;99.90;;;;;;5066540;28;20037;-46
2024/01/25 04:28:10;;;;;;;24.67;3.85;;;9.50;99.90;;;;;;5066700;28;20070;-47
2024/01/25 04:30:36;;;;;;;22.08;3.60;;;9.50;99.90;;;;;;5066812;28;20225;-46
2024/01/25 04:33:02;;;;;;;23.88;3.35;;;9.40;99.90;;;;;;5066762;28;20033;-46
2024/01/25 04:35:28;;;;;;;20.83;2.45;;;9.40;99.90;;;;;;5066411;28;20037;-47
2024/01/25 04:37:53;;;;;;;12.73;2.40;;;9.40;99.90;;;;;;5065597;28;20025;-46
2024/01/25 04:40:19;;;;;;;10.10;2.40;;;9.30;99.90;;;;;;5065544;28;20086;-46
2024/01/25 04:42:45;;;;;;;19.13;2.55;;;9.30;99.90;;;;;;5049055;28;20043;-46
2024/01/25 04:45:11;;;;;;;11.43;2.10;;;9.30;99.90;;;;;;5066469;28;20175;-47
2024/01/25 04:47:38;;;;;;;11.73;2.15;;;9.30;99.90;;;;;;5066534;28;20025;-46
2024/01/25 04:50:04;;;;;;;8.70;1.50;;;9.30;99.90;;;;;;5066249;28;20034;-46
2024/01/25 04:52:30;;;;;;;8.77;1.48;;;9.30;99.90;;;;;;5065315;28;20175;-48
2024/01/25 04:54:56;;;;;;;8.07;1.65;;;9.30;99.90;;;;;;5066269;28;20043;-50
2024/01/25 04:57:21;;;;;;;10.25;1.90;;;9.20;99.90;;;;;;5066230;28;20060;-48
2024/01/25 04:59:47;;;;;;;8.00;1.73;;;9.20;99.90;;;;;;5066105;28;20271;-49
2024/01/25 05:02:13;;;;;;;5.88;1.50;;;9.20;99.90;;;;;;5066282;28;20298;-46
2024/01/25 05:04:38;;;;;;;5.90;1.40;;;9.20;99.90;;;;;;5066025;28;20187;-49
2024/01/25 05:07:04;;;;;;;7.82;1.20;;;9.20;99.90;;;;;;5066096;28;20025;-49
2024/01/25 05:09:29;;;;;;;5.22;1.52;;;9.20;99.90;;;;;;5065769;28;20079;-49
2024/01/25 05:11:58;;;;;;;3.97;1.30;;;9.20;99.90;;;;;;5064941;28;20025;-46
2024/01/25 05:14:24;;;;;;;4.47;1.30;;;9.20;99.90;;;;;;5064935;28;20021;-49
2024/01/25 05:16:50;;;;;;;2.30;0.80;;;9.30;99.90;;;;;;5065517;28;20117;-49
2024/01/25 05:19:16;;;;;;;4.60;1.02;;;9.40;99.90;;;;;;5065585;28;20037;-49
2024/01/25 05:21:42;;;;;;;4.55;1.10;;;9.40;99.90;;;;;;5065658;28;20156;-49
2024/01/25 05:24:09;;;;;;;2.65;0.90;;;9.40;99.90;;;;;;5064749;28;20088;-49
2024/01/25 05:26:35;;;;;;;4.68;1.20;;;9.50;99.90;;;;;;5065756;28;20064;-46
2024/01/25 05:29:01;;;;;;;3.40;1.08;;;9.50;99.90;;;;;;5065752;28;20298;-50
2024/01/25 05:31:26;;;;;;;4.38;1.10;;;9.50;99.90;;;;;;5064867;28;20094;-46
2024/01/25 05:33:52;;;;;;;4.55;1.40;;;9.50;99.90;;;;;;5065502;28;20219;-46
2024/01/25 05:36:18;;;;;;;5.43;1.52;;;9.50;99.90;;;;;;5065620;28;20063;-46
2024/01/25 05:38:43;;;;;;;3.05;0.95;;;9.50;99.90;;;;;;5065683;28;20044;-46
2024/01/25 05:41:09;;;;;;;3.88;1.08;;;9.60;99.90;;;;;;5065622;28;20048;-47
2024/01/25 05:43:34;;;;;;;3.45;1.10;;;9.60;99.90;;;;;;5065582;28;20088;-49
2024/01/25 05:46:00;;;;;;;5.60;1.27;;;9.60;99.90;;;;;;5065542;28;20029;-49
2024/01/25 05:48:26;;;;;;;7.72;1.83;;;9.70;99.90;;;;;;5065552;28;20084;-46
2024/01/25 05:50:51;;;;;;;5.72;1.48;;;9.70;99.90;;;;;;5065608;28;20021;-49
2024/01/25 05:53:19;;;;;;;3.63;1.17;;;9.70;99.90;;;;;;5065134;28;20033;-50
2024/01/25 05:55:45;;;;;;;4.80;1.52;;;9.70;99.90;;;;;;5065377;28;20036;-49
2024/01/25 05:58:11;;;;;;;6.63;1.58;;;9.60;99.90;;;;;;5065397;28;20078;-48
2024/01/25 06:00:36;;;;;;;6.95;1.50;;;9.70;99.90;;;;;;5065031;28;20082;-45
2024/01/25 06:03:02;;;;;;;3.33;1.20;;;9.60;99.90;;;;;;5064871;28;20048;-47
2024/01/25 06:05:28;;;;;;;9.77;1.60;;;9.60;99.90;;;;;;5065044;28;20280;-47
2024/01/25 06:07:53;;;;;;;3.10;1.05;;;9.60;99.90;;;;;;5065130;28;20024;-46
2024/01/25 06:10:19;;;;;;;7.68;1.75;;;9.60;99.90;;;;;;5065497;28;20112;-49
2024/01/25 06:12:45;;;;;;;3.92;1.33;;;9.60;99.90;;;;;;5064376;28;20017;-47
2024/01/25 06:15:10;;;;;;;6.75;1.50;;;9.70;99.90;;;;;;5063953;28;20036;-46
2024/01/25 06:17:36;;;;;;;8.70;2.33;;;9.70;99.90;;;;;;5064871;28;20262;-45
2024/01/25 06:20:02;;;;;;;3.50;1.23;;;9.70;99.90;;;;;;5065047;28;20088;-47
2024/01/25 06:22:28;;;;;;;8.52;2.33;;;9.70;99.90;;;;;;5065209;28;20032;-47
2024/01/25 06:24:53;;;;;;;7.28;2.35;;;9.70;99.90;;;;;;5064143;28;20040;-46
2024/01/25 06:27:19;;;;;;;6.35;1.83;;;9.70;99.90;;;;;;5069224;28;20025;-46
2024/01/25 06:29:45;;;;;;;10.55;2.83;;;9.70;99.90;;;;;;5069019;28;20095;-47
2024/01/25 06:32:10;;;;;;;9.68;3.38;;;9.70;99.90;;;;;;5068996;28;20183;-47
2024/01/25 06:34:36;;;;;;;9.00;2.22;;;9.70;99.90;;;;;;5068891;28;20080;-46
2024/01/25 06:37:02;;;;;;;8.05;2.70;;;9.70;99.90;;;;;;5068826;28;20040;-48
2024/01/25 06:39:28;;;;;;;11.25;4.38;;;9.80;99.90;;;;;;5068773;28;20114;-48
2024/01/25 06:41:54;;;;;;;10.50;3.22;;;9.80;99.90;;;;;;5067718;28;20040;-46
2024/01/25 06:44:19;;;;;;;11.63;4.65;;;9.80;99.90;;;;;;5067612;28;20299;-46
2024/01/25 06:46:45;;;;;;;7.90;2.65;;;9.80;99.90;;;;;;5068736;28;20037;-46
2024/01/25 06:49:11;;;;;;;6.75;2.28;;;9.80;99.90;;;;;;5068770;28;20156;-47
2024/01/25 06:51:37;;;;;;;12.05;2.20;;;9.80;99.90;;;;;;5068437;28;20056;-48
2024/01/25 06:54:02;;;;;;;8.93;1.73;;;9.80;99.90;;;;;;5068370;28;20029;-46
2024/01/25 06:56:28;;;;;;;14.27;3.22;;;9.80;99.90;;;;;;5068417;28;20025;-46
2024/01/25 06:58:54;;;;;;;15.73;4.10;;;9.80;99.90;;;;;;5068346;28;20055;-47
2024/01/25 07:01:22;;;;;;;8.02;2.80;;;9.80;99.90;;;;;;5068091;28;20029;-47
2024/01/25 07:03:50;;;;;;;7.75;3.30;;;9.80;99.90;;;;;;5068165;28;20040;-46
2024/01/25 07:06:17;;;;;;;12.40;3.17;;;9.80;99.90;;;;;;5067173;28;20037;-49
2024/01/25 07:08:43;;;;;;;9.77;3.15;;;9.80;99.90;;;;;;5067281;28;20096;-46
2024/01/25 07:11:09;;;;;;;9.50;2.75;;;9.80;99.90;;;;;;5068325;28;20040;-46
2024/01/25 07:13:34;;;;;;;11.88;2.95;;;9.80;99.90;;;;;;5067988;28;20025;-47
2024/01/25 07:16:00;;;;;;;15.65;3.45;;;9.80;99.90;;;;;;5067818;28;20057;-45
2024/01/25 07:18:26;;;;;;;15.27;2.72;;;9.80;99.90;;;;;;5068033;28;20098;-46
2024/01/25 07:20:51;;;;;;;13.00;2.50;;;9.90;99.90;;;;;;5067969;28;20197;-51
2024/01/25 07:23:17;;;;;;;7.40;2.10;;;10.00;99.90;;;;;;5067715;28;20047;-49
2024/01/25 07:25:43;;;;;;;7.28;2.28;;;10.10;99.90;;;;;;5067716;28;20044;-49
2024/01/25 07:28:09;;;;;;;15.05;2.50;;;10.10;99.90;;;;;;5066744;28;20028;-50
2024/01/25 07:30:34;;;;;;;15.90;2.58;;;10.20;99.90;;;;;;5067876;28;20044;-50
2024/01/25 07:33:01;;;;;;;16.80;3.45;;;10.30;99.90;;;;;;5067819;28;20103;-49
2024/01/25 07:35:27;;;;;;;15.48;2.08;;;10.30;99.90;;;;;;5067556;28;20079;-49
2024/01/25 07:37:52;;;;;;;10.60;2.70;;;10.30;99.90;;;;;;5066489;28;20029;-49
2024/01/25 07:40:18;;;;;;;15.68;2.72;;;10.30;99.90;;;;;;5066608;28;20029;-49
2024/01/25 07:42:44;;;;;;;13.75;2.75;;;10.40;99.90;;;;;;5067622;28;20035;-47
2024/01/25 07:45:10;;;;;;;13.02;2.30;;;10.40;99.90;;;;;;5067345;28;20234;-46
2024/01/25 07:47:35;;;;;;;18.63;3.13;;;10.40;99.90;;;;;;5067140;28;20036;-46
2024/01/25 07:50:01;;;;;;;10.25;2.20;;;10.40;99.90;;;;;;5066529;28;20036;-50
2024/01/25 07:52:27;;;;;;;18.73;2.55;;;10.50;99.90;;;;;;5067295;28;20029;-48
2024/01/25 07:54:53;;;;;;;16.50;3.03;;;10.50;99.90;;;;;;5067360;28;20080;-48
2024/01/25 07:57:19;;;;;;;20.17;3.83;;;10.50;99.90;;;;;;5066121;28;20033;-49
2024/01/25 07:59:45;;;;;;;13.80;2.10;;;10.50;99.90;;;;;;5067142;28;20042;-50
2024/01/25 08:02:10;;;;;;;22.88;3.88;;;10.50;99.90;;;;;;5065984;28;20110;-49
2024/01/25 08:04:36;;;;;;;20.73;3.05;;;10.50;99.90;;;;;;5066957;28;20056;-49
2024/01/25 08:07:02;;;;;;;17.85;3.15;;;10.50;99.90;;;;;;5066978;28;20021;-50
2024/01/25 08:09:28;;;;;;;15.07;3.17;;;10.60;99.90;;;;;;5066629;28;20025;-48
2024/01/25 08:11:54;;;;;;;17.73;3.47;;;10.70;99.90;;;;;;5066889;28;20029;-49
2024/01/25 08:14:19;;;;;;;15.48;2.55;;;10.70;99.90;;;;;;5066816;28;20047;-46
2024/01/25 08:16:45;;;;;;;14.82;2.90;;;10.80;99.90;;;;;;5066445;28;20209;-46
2024/01/25 08:19:11;;;;;;;12.27;2.45;;;10.80;99.90;;;;;;5066934;28;20036;-46
2024/01/25 08:21:37;;;;;;;22.20;3.33;;;10.80;99.90;;;;;;5066980;28;20162;-47
2024/01/25 08:24:03;;;;;;;23.23;3.42;;;10.90;99.90;;;;;;5066579;28;20052;-46
2024/01/25 08:26:28;;;;;;;26.20;3.75;;;10.90;99.90;;;;;;5066435;28;20067;-47
2024/01/25 08:28:54;;;;;;;20.60;3.30;;;10.90;99.90;;;;;;5066464;28;20219;-46
2024/01/25 08:31:20;;;;;;;16.63;2.90;;;10.90;99.90;;;;;;5065337;28;20025;-46
2024/01/25 08:33:47;;;;;;;19.05;3.33;;;10.90;99.90;;;;;;5066563;28;20040;-47
2024/01/25 08:36:13;;;;;;;19.65;3.53;;;11.00;99.90;;;;;;5066375;28;20301;-47
2024/01/25 08:38:39;;;;;;;19.55;3.17;;;11.00;99.90;;;;;;5066276;28;20044;-46
2024/01/25 08:41:05;;;;;;;22.50;4.90;;;11.00;99.90;;;;;;5065755;28;20156;-46
2024/01/25 08:43:30;;;;;;;24.17;3.78;;;11.00;99.90;;;;;;5066072;28;20090;-46
2024/01/25 08:45:56;;;;;;;10.07;2.03;;;11.00;99.90;;;;;;5048377;28;20033;-46
2024/01/25 08:48:22;;;;;;;14.65;2.78;;;11.00;99.90;;;;;;5065836;28;20228;-46
2024/01/25 08:50:52;;;;;;;16.42;2.65;;;11.00;99.90;;;;;;5066202;28;20246;-48
2024/01/25 08:53:19;;;;;;;23.70;3.80;;;11.00;99.90;;;;;;5064893;28;20028;-50
2024/01/25 08:55:44;;;;;;;20.92;3.45;;;11.00;99.90;;;;;;5048731;28;20051;-46
2024/01/25 08:58:10;;;;;;;26.13;3.33;;;11.10;99.90;;;;;;5065418;28;20182;-46
2024/01/25 09:00:36;;;;;;;32.75;4.25;;;11.10;99.90;;;;;;5064462;28;20083;-45
2024/01/25 09:03:01;;;;;;;21.58;2.97;;;11.10;99.90;;;;;;5066083;28;20076;-46
2024/01/25 09:05:28;;;;;;;15.23;2.88;;;11.10;99.90;;;;;;5065717;28;20230;-46
2024/01/25 09:07:54;;;;;;;25.05;3.13;;;11.10;99.90;;;;;;5065655;28;20021;-46
2024/01/25 09:10:19;;;;;;;26.08;3.22;;;11.20;99.90;;;;;;5065335;28;20040;-46
2024/01/25 09:12:45;;;;;;;17.23;3.72;;;11.20;99.90;;;;;;5065252;28;20076;-46
2024/01/25 09:15:11;;;;;;;22.92;5.50;;;11.20;99.90;;;;;;5064473;28;20045;-46
2024/01/25 09:17:37;;;;;;;19.63;2.88;;;11.20;99.90;;;;;;5065225;28;20126;-46
2024/01/25 09:20:03;;;;;;;21.50;3.42;;;11.20;99.90;;;;;;5065522;28;20044;-46
2024/01/25 09:22:28;;;;;;;21.00;3.13;;;11.20;99.90;;;;;;5065574;28;20044;-48
2024/01/25 09:24:54;;;;;;;18.45;2.83;;;11.30;99.90;;;;;;5065418;28;20190;-49
2024/01/25 09:27:20;;;;;;;25.33;3.47;;;11.20;99.90;;;;;;5065185;28;20021;-49
2024/01/25 09:29:45;;;;;;;24.67;4.03;;;11.30;99.90;;;;;;5064928;28;20033;-49
2024/01/25 09:32:11;;;;;;;24.00;3.75;;;11.30;99.90;;;;;;5065390;28;20135;-49
2024/01/25 09:34:37;;;;;;;28.02;3.45;;;11.20;99.90;;;;;;5065661;28;20040;-50
2024/01/25 09:37:03;;;;;;;15.60;2.67;;;11.20;99.90;;;;;;5065251;28;20028;-52
2024/01/25 09:39:29;;;;;;;20.50;4.25;;;11.30;99.90;;;;;;5064155;28;20183;-51
2024/01/25 09:41:55;;;;;;;18.98;3.22;;;11.20;99.90;;;;;;5064125;28;20017;-49
2024/01/25 09:44:20;;;;;;;15.73;3.08;;;11.20;99.90;;;;;;5064140;28;20100;-48
2024/01/25 09:46:47;;;;;;;14.88;2.80;;;11.20;99.90;;;;;;5065011;28;20201;-49
2024/01/25 09:49:12;;;;;;;23.08;3.25;;;11.20;99.90;;;;;;5064372;28;20028;-49
2024/01/25 09:51:40;;;;;;;20.42;3.05;;;11.20;99.90;;;;;;5065050;28;20039;-50
2024/01/25 09:54:06;;;;;;;8.98;2.40;;;11.20;99.90;;;;;;5065196;28;20041;-49
2024/01/25 09:56:32;;;;;;;26.70;3.67;;;11.20;99.90;;;;;;5065272;28;20307;-48
2024/01/25 09:58:58;;;;;;;8.98;1.63;;;11.20;99.90;;;;;;5065076;28;20086;-50
2024/01/25 10:01:24;;;;;;;16.52;2.28;;;11.20;99.90;;;;;;5067406;28;20033;-51
2024/01/25 10:03:50;;;;;;;13.70;2.65;;;11.20;99.90;;;;;;5067891;28;20293;-49
2024/01/25 10:06:16;;;;;;;23.80;4.47;;;11.20;99.90;;;;;;5069225;28;20021;-49
2024/01/25 10:08:42;;;;;;;11.38;2.45;;;11.20;99.90;;;;;;5069377;28;20033;-51
2024/01/25 10:11:08;;;;;;;16.70;2.97;;;11.20;99.90;;;;;;5069078;28;20088;-50
2024/01/25 10:13:53;;;;;;;18.27;3.35;;;11.20;99.90;;;;;;5068149;28;20016;-49
2024/01/25 10:16:19;;;;;;;20.55;4.25;;;11.20;99.90;;;;;;5068745;28;20068;-52
2024/01/25 10:18:48;;;;;;;18.17;3.78;;;11.20;99.90;;;;;;5068059;28;20029;-48
2024/01/25 10:21:14;;;;;;;11.30;2.40;;;11.30;99.90;;;;;;5067802;28;20078;-49
2024/01/25 10:23:40;;;;;;;19.50;4.05;;;11.30;99.90;;;;;;5068728;28;20025;-50
2024/01/25 10:26:08;;;;;;;22.38;2.90;;;11.30;99.90;;;;;;5068681;28;20080;-50
2024/01/25 10:28:33;;;;;;;12.45;2.95;;;11.30;99.90;;;;;;5067742;28;20092;-52
2024/01/25 10:31:04;;;;;;;14.27;2.78;;;11.30;99.90;;;;;;5068963;28;20037;-51
2024/01/25 10:33:30;;;;;;;25.83;3.90;;;11.40;99.90;;;;;;5068884;28;20021;-52
2024/01/25 10:36:01;;;;;;;27.00;3.67;;;11.30;99.90;;;;;;5068641;28;20064;-51
2024/01/25 10:38:34;;;;;;;9.45;2.40;;;11.30;99.90;;;;;;5068657;28;20043;-50
2024/01/25 10:41:01;;;;;;;20.92;3.08;;;11.40;99.90;;;;;;5067625;28;20031;-50
2024/01/25 10:43:27;;;;;;;23.15;3.72;;;11.40;99.90;;;;;;5068461;28;20029;-48
2024/01/25 10:45:57;;;;;;;17.25;3.42;;;11.40;99.90;;;;;;5067396;28;20035;-50
2024/01/25 10:48:23;;;;;;;17.35;2.75;;;11.30;99.90;;;;;;5051737;28;20021;-50
2024/01/25 10:50:48;;;;;;;16.63;3.17;;;11.40;99.90;;;;;;5067323;28;20102;-50
2024/01/25 10:53:15;;;;;;;7.68;2.28;;;11.40;99.90;;;;;;5067432;28;20020;-49
2024/01/25 10:55:41;;;;;;;23.25;3.65;;;11.40;99.90;;;;;;5067360;28;20028;-49
2024/01/25 10:58:08;;;;;;;22.10;3.72;;;11.40;99.90;;;;;;5067841;28;20298;-48
2024/01/25 11:00:34;;;;;;;27.77;5.90;;;11.40;99.90;;;;;;5067868;28;20021;-49
2024/01/25 11:03:00;;;;;;;23.00;4.32;;;11.40;99.90;;;;;;5067048;28;20055;-48
2024/01/25 11:05:26;;;;;;;29.95;4.03;;;11.40;99.90;;;;;;5067678;28;20049;-48
2024/01/25 11:07:52;;;;;;;29.30;3.83;;;11.40;99.90;;;;;;5066954;28;20099;-52
2024/01/25 11:10:21;;;;;;;14.45;2.17;;;11.40;99.90;;;;;;5066906;28;20048;-49
2024/01/25 11:13:00;;;;;;;21.38;3.97;;;11.50;99.90;;;;;;5067953;28;20170;-48
2024/01/25 11:15:36;;;;;;;22.90;3.33;;;11.50;99.90;;;;;;5067610;28;20039;-49
2024/01/25 11:18:02;;;;;;;24.65;5.15;;;11.50;99.90;;;;;;5067191;28;20310;-49
2024/01/25 11:20:29;;;;;;;22.55;5.55;;;11.50;99.90;;;;;;5067669;28;20333;-49
2024/01/25 11:22:59;;;;;;;20.80;8.10;;;11.50;99.90;;;;;;5067830;28;20032;-49
2024/01/25 11:25:37;;;;;;;38.70;13.48;;;11.50;99.90;;;;;;5067552;28;20020;-49
2024/01/25 11:28:04;;;;;;;22.23;5.78;;;11.50;99.90;;;;;;5067647;28;20092;-49
2024/01/25 11:30:31;;;;;;;26.85;9.30;;;11.50;99.90;;;;;;5067637;28;20025;-50
2024/01/25 11:32:57;;;;;;;22.05;4.93;;;11.50;99.90;;;;;;5067701;28;20045;-48
2024/01/25 11:35:23;;;;;;;18.05;4.65;;;11.50;99.90;;;;;;5067206;28;20033;-47
2024/01/25 11:37:51;;;;;;;20.25;4.13;;;11.50;99.90;;;;;;5066212;28;20029;-50
2024/01/25 11:40:16;;;;;;;14.10;4.18;;;11.50;99.90;;;;;;5067473;28;20096;-50
2024/01/25 11:42:43;;;;;;;12.18;2.83;;;11.50;99.90;;;;;;5049906;28;20025;-49
2024/01/25 11:45:12;;;;;;;9.18;2.55;;;11.50;99.90;;;;;;5067012;28;20031;-50
2024/01/25 11:47:38;;;;;;;20.70;3.50;;;11.50;99.90;;;;;;5066809;28;20294;-48
2024/01/25 11:50:04;;;;;;;27.15;5.65;;;11.50;99.90;;;;;;5067052;28;20037;-49
2024/01/25 11:52:33;;;;;;;20.15;4.03;;;11.50;99.90;;;;;;5065967;28;20293;-50
2024/01/25 11:55:01;;;;;;;26.63;4.35;;;11.40;99.90;;;;;;5066557;28;20025;-48
2024/01/25 11:57:27;;;;;;;15.90;3.35;;;11.40;99.90;;;;;;5066418;28;20029;-49
2024/01/25 11:59:52;;;;;;;16.17;3.33;;;11.40;99.90;;;;;;5065704;28;20183;-49
2024/01/25 12:02:18;;;;;;;15.23;2.97;;;11.30;99.90;;;;;;5066916;28;20033;-49
2024/01/25 12:04:45;;;;;;;24.65;4.97;;;11.30;99.90;;;;;;5067131;28;20096;-47
2024/01/25 12:07:11;;;;;;;21.73;3.63;;;11.30;99.90;;;;;;5049723;28;20055;-47
2024/01/25 12:09:37;;;;;;;9.10;2.15;;;11.30;99.90;;;;;;5065873;28;20080;-48
2024/01/25 12:12:03;;;;;;;14.02;3.45;;;11.10;99.90;;;;;;5065551;28;20025;-47
2024/01/25 12:14:29;;;;;;;19.73;3.50;;;11.10;99.90;;;;;;5065536;28;20190;-48
2024/01/25 12:16:57;;;;;;;24.27;4.85;;;11.10;99.90;;;;;;5066265;28;20053;-51
2024/01/25 12:19:23;;;;;;;15.68;3.67;;;11.10;99.90;;;;;;5066366;28;20086;-50
2024/01/25 12:21:49;;;;;;;17.27;3.38;;;11.20;99.90;;;;;;5066569;28;20179;-49
2024/01/25 12:24:14;;;;;;;8.48;2.15;;;11.20;99.90;;;;;;5066073;28;20028;-48
2024/01/25 12:26:41;;;;;;;18.80;3.60;;;11.30;99.90;;;;;;5066553;28;20059;-47
2024/01/25 12:29:08;;;;;;;19.75;4.25;;;11.30;99.90;;;;;;5066648;28;20044;-48
2024/01/25 12:31:34;;;;;;;22.73;4.82;;;11.30;99.90;;;;;;5066472;28;20033;-49
2024/01/25 12:34:00;;;;;;;14.93;2.60;;;11.30;99.90;;;;;;5066177;28;20226;-49
2024/01/25 12:36:25;;;;;;;9.63;2.42;;;11.40;99.90;;;;;;5065162;28;20052;-48
2024/01/25 12:38:51;;;;;;;12.68;2.88;;;11.40;99.90;;;;;;5066153;28;20127;-48